Main page
METAR-TAF:

METAR-TAF

Airports :

Palma de Mallorca, Spain

Palma de Mallorca Airport

latitude: 39-33N, longitude: 002-44E, elevation: 4 m

Current weather observation

The report was made 37 minutes ago, at 01:30 UTC
Wind 3 kt from the East
Temperature 19°C
Humidity 56%
Pressure 1016 hPa
Visibility 10 km or more
no clouds below 1500 m and no cumulonimbus

METAR: LEPA 290130Z 08003KT CAVOK 19/10 Q1016 NOSIG

Time: 04:07 (02:07 UTC)

Forecast

The report was made 3 hours and 7 minutes ago, at 23:00 UTC
Forecast valid from 29 at 00 UTC to 29 at 24 UTC
Wind 7 kt from the Northeast
Visibility 10 km or more
Few clouds at a height of 3000 ft
Becoming
from 29 at 10 UTC to 29 at 12 UTC
Wind 12 kt from the East/Southeast
Becoming
from 29 at 20 UTC to 29 at 22 UTC
Wind 7 kt from the Northeast

TAF: LEPA 282300Z 2900/2924 05007KT 9999 FEW030 TX29/2912Z TN16/2906Z BECMG 2910/2912 11012KT BECMG 2920/2922 05007KT

Weather observations and forecasts of more than 4000 airports (METAR and TAF reports).

The available stations are represented by yellow and red dots on the map.

Hover mouse over dot to see the name of the station.

Then click to see weather observations and forecasts.

To change the map : click on the green buttons with a black cross to zoom in, on the green button with a dash to zoom out, or on the green arrows for adjacent maps.


METAR-TAF: